Time;durP1;ratioP1;P1;durP2;ratioP2;P2;SDS_P1;SDS_P2;PMS_P1;PMS_P2;Temp;Humidity;BMP_temperature;BMP_pressure;BME280_temperature;BME280_humidity;BME280_pressure;Samples;Min_cycle;Max_cycle;Signal;HPM_P1;HPM_P2
2022/03/21 00:00:49;;;;;;;69.68;41.13;;;;;;;2.91;100.00;102987.50;5029214;28;20045;-67
2022/03/21 00:03:18;;;;;;;67.63;39.47;;;;;;;2.91;100.00;102992.69;5027778;28;20489;-68
2022/03/21 00:05:45;;;;;;;69.32;41.95;;;;;;;2.89;100.00;102996.88;5028881;28;20105;-67
2022/03/21 00:08:11;;;;;;;70.63;41.30;;;;;;;2.86;100.00;102999.22;5030291;28;20034;-67
2022/03/21 00:10:38;;;;;;;69.85;41.13;;;;;;;2.87;100.00;102999.31;5031327;28;20055;-66
2022/03/21 00:13:04;;;;;;;70.95;40.67;;;;;;;2.88;100.00;102997.66;5029265;28;20022;-67
2022/03/21 00:15:32;;;;;;;66.28;40.30;;;;;;;2.87;100.00;103001.94;5031383;28;20061;-66
2022/03/21 00:17:57;;;;;;;69.95;41.38;;;;;;;2.90;100.00;103002.97;5027180;28;20052;-66
2022/03/21 00:20:23;;;;;;;69.47;39.33;;;;;;;2.87;100.00;102998.44;5033536;28;20414;-67
2022/03/21 00:22:51;;;;;;;66.85;39.03;;;;;;;2.89;100.00;103008.97;5036883;28;20499;-67
2022/03/21 00:25:16;;;;;;;70.57;40.45;;;;;;;2.90;100.00;103009.06;5034678;28;20068;-67
2022/03/21 00:27:42;;;;;;;65.38;38.35;;;;;;;2.89;100.00;103003.75;5033486;28;20033;-66
2022/03/21 00:30:09;;;;;;;62.72;37.78;;;;;;;2.87;100.00;102996.72;5033844;28;20029;-66
2022/03/21 00:32:35;;;;;;;65.13;38.80;;;;;;;2.85;100.00;103003.50;5031694;28;20040;-67
2022/03/21 00:35:01;;;;;;;67.22;38.97;;;;;;;2.84;100.00;103003.38;5032625;28;20092;-66
2022/03/21 00:37:28;;;;;;;69.32;39.33;;;;;;;2.85;100.00;102998.31;5033793;28;20036;-67
2022/03/21 00:39:54;;;;;;;64.28;39.97;;;;;;;2.76;100.00;102994.03;5032745;28;20029;-67
2022/03/21 00:42:20;;;;;;;64.90;38.90;;;;;;;2.73;100.00;102999.91;5033346;28;20043;-68
2022/03/21 00:44:45;;;;;;;68.30;39.75;;;;;;;2.75;100.00;103006.13;5032316;28;20029;-67
2022/03/21 00:47:11;;;;;;;68.47;38.17;;;;;;;2.65;100.00;103007.03;5027957;28;20037;-67
2022/03/21 00:49:36;;;;;;;71.95;42.80;;;;;;;2.57;100.00;102999.41;5032364;28;20628;-67
2022/03/21 00:52:02;;;;;;;67.45;39.03;;;;;;;2.51;100.00;103000.69;5032834;28;20488;-68
2022/03/21 00:54:27;;;;;;;64.47;39.45;;;;;;;2.60;100.00;103004.84;5033035;28;20492;-68
2022/03/21 00:56:53;;;;;;;67.43;38.85;;;;;;;2.56;100.00;103003.66;5034474;28;20029;-67
2022/03/21 00:59:19;;;;;;;65.28;39.83;;;;;;;2.52;100.00;103006.78;5032226;28;20033;-67
2022/03/21 01:01:44;;;;;;;66.72;38.88;;;;;;;2.46;100.00;103009.78;5032876;28;20022;-67
2022/03/21 01:04:10;;;;;;;65.00;38.03;;;;;;;2.42;100.00;103014.59;5029811;28;20112;-67
2022/03/21 01:06:35;;;;;;;65.00;39.97;;;;;;;2.32;100.00;103013.81;5034660;28;20370;-68
2022/03/21 01:09:01;;;;;;;69.20;40.85;;;;;;;2.36;100.00;103013.31;5030681;28;20033;-68
2022/03/21 01:11:26;;;;;;;65.97;40.00;;;;;;;2.40;100.00;103005.75;5033160;28;20036;-68
2022/03/21 01:13:51;;;;;;;69.82;39.83;;;;;;;2.31;100.00;103006.78;5032824;28;20032;-67
2022/03/21 01:16:17;;;;;;;70.88;39.25;;;;;;;2.30;100.00;103017.97;5033690;28;20055;-68
2022/03/21 01:18:45;;;;;;;68.72;39.33;;;;;;;2.28;100.00;103016.00;5033728;28;20025;-67
2022/03/21 01:21:12;;;;;;;69.45;38.95;;;;;;;2.28;100.00;103016.94;5031449;28;20037;-67
2022/03/21 01:23:38;;;;;;;69.20;39.38;;;;;;;2.17;100.00;103017.69;5029639;28;20026;-68
2022/03/21 01:26:03;;;;;;;67.78;39.58;;;;;;;2.16;100.00;103021.09;5034048;28;20418;-67
2022/03/21 01:28:29;;;;;;;66.40;39.42;;;;;;;2.14;100.00;103017.44;5031103;28;20123;-67
2022/03/21 01:30:54;;;;;;;70.30;41.13;;;;;;;2.21;100.00;103019.75;5031864;28;20115;-69
2022/03/21 01:33:19;;;;;;;67.55;40.45;;;;;;;2.12;100.00;103014.72;5026854;28;20478;-67
2022/03/21 01:35:44;;;;;;;69.85;41.72;;;;;;;2.07;100.00;103020.28;5033728;28;20059;-67
2022/03/21 01:38:10;;;;;;;74.03;41.33;;;;;;;2.03;100.00;103019.09;5032118;28;20027;-67
2022/03/21 01:40:35;;;;;;;71.40;39.40;;;;;;;1.98;100.00;103026.50;5033254;28;20030;-67
2022/03/21 01:43:01;;;;;;;76.57;41.38;;;;;;;1.93;100.00;103027.78;5033409;28;20398;-67
2022/03/21 01:45:28;;;;;;;71.60;40.13;;;;;;;1.97;100.00;103024.69;5031460;28;20396;-67
2022/03/21 01:47:54;;;;;;;68.50;41.08;;;;;;;1.95;100.00;103028.81;5032451;28;20382;-68
2022/03/21 01:50:20;;;;;;;68.22;38.72;;;;;;;1.95;100.00;103031.41;5033108;28;20045;-67
2022/03/21 01:52:45;;;;;;;68.57;39.58;;;;;;;1.95;100.00;103026.22;5033109;28;20436;-67
2022/03/21 01:57:59;;;;;;;71.43;39.60;;;;;;;1.89;100.00;103030.00;5027482;28;20044;-67
2022/03/21 02:00:24;;;;;;;77.93;42.17;;;;;;;1.85;100.00;103039.19;5031783;28;20022;-67
2022/03/21 02:02:50;;;;;;;69.00;41.00;;;;;;;1.84;100.00;103034.75;5030470;28;20033;-67
2022/03/21 02:05:15;;;;;;;67.82;39.22;;;;;;;1.81;100.00;103037.09;5031000;28;20116;-67
2022/03/21 02:07:41;;;;;;;68.63;39.63;;;;;;;1.69;100.00;103034.34;5032649;28;20037;-67
2022/03/21 02:10:07;;;;;;;70.80;40.05;;;;;;;1.66;100.00;103031.47;5030803;28;20029;-67
2022/03/21 02:12:33;;;;;;;71.68;41.38;;;;;;;1.64;100.00;103036.53;5031639;28;20078;-67
2022/03/21 02:14:59;;;;;;;76.03;41.90;;;;;;;1.81;100.00;103045.78;5031549;28;20100;-66
2022/03/21 02:17:26;;;;;;;71.57;40.88;;;;;;;1.86;100.00;103035.81;5033085;28;20025;-66
2022/03/21 02:19:53;;;;;;;69.07;40.90;;;;;;;1.82;100.00;103033.75;5031630;28;20499;-67
2022/03/21 02:22:33;;;;;;;65.65;38.90;;;;;;;1.73;100.00;103038.13;5031696;28;20033;-66
2022/03/21 02:25:01;;;;;;;76.88;42.03;;;;;;;1.84;100.00;103037.38;5029333;28;20037;-67
2022/03/21 02:27:28;;;;;;;71.43;40.42;;;;;;;1.75;100.00;103039.16;5031723;28;20029;-67
2022/03/21 02:29:55;;;;;;;78.35;42.05;;;;;;;1.64;100.00;103033.94;5031586;28;20026;-67
2022/03/21 02:32:21;;;;;;;76.82;41.25;;;;;;;1.61;100.00;103037.94;5029669;28;20377;-67
2022/03/21 02:34:48;;;;;;;76.93;42.03;;;;;;;1.63;100.00;103045.09;5033312;28;20028;-67
2022/03/21 02:37:17;;;;;;;77.88;41.40;;;;;;;1.65;100.00;103046.13;5032730;28;20469;-67
2022/03/21 02:39:43;;;;;;;73.15;42.63;;;;;;;1.54;100.00;103041.66;5030796;28;20025;-67
2022/03/21 02:42:09;;;;;;;76.50;43.83;;;;;;;1.62;100.00;103040.66;5030643;28;20385;-68
2022/03/21 02:44:38;;;;;;;73.30;40.53;;;;;;;1.54;100.00;103039.09;5032043;28;20025;-67
2022/03/21 02:47:05;;;;;;;72.65;41.05;;;;;;;1.69;100.00;103037.81;5029286;28;20022;-67
2022/03/21 02:49:31;;;;;;;73.00;40.47;;;;;;;1.62;100.00;103051.03;5029336;28;20408;-67
2022/03/21 02:51:59;;;;;;;73.18;42.55;;;;;;;1.69;100.00;103040.41;5032232;28;20036;-68
2022/03/21 02:54:25;;;;;;;70.68;40.63;;;;;;;1.58;100.00;103038.56;5029803;28;20021;-68
2022/03/21 02:56:51;;;;;;;77.13;41.33;;;;;;;1.49;100.00;103043.88;5032626;28;20048;-68
2022/03/21 02:59:17;;;;;;;69.15;39.65;;;;;;;1.46;100.00;103045.28;5030685;28;20017;-67
2022/03/21 03:01:42;;;;;;;75.22;42.20;;;;;;;1.45;100.00;103041.78;5028679;28;20029;-69
2022/03/21 03:04:08;;;;;;;77.53;43.40;;;;;;;1.39;100.00;103045.50;5029064;28;20465;-67
2022/03/21 03:06:34;;;;;;;72.47;41.58;;;;;;;1.34;100.00;103048.59;5024486;28;20026;-67
2022/03/21 03:09:00;;;;;;;76.25;43.38;;;;;;;1.59;100.00;103048.19;5030799;28;20055;-67
2022/03/21 03:11:25;;;;;;;81.75;41.67;;;;;;;1.53;100.00;103045.03;5030598;28;20065;-68
2022/03/21 03:13:51;;;;;;;81.85;42.85;;;;;;;1.49;100.00;103046.47;5029658;28;20033;-67
2022/03/21 03:16:16;;;;;;;68.50;40.92;;;;;;;1.47;100.00;103047.09;5028587;28;20036;-67
2022/03/21 03:18:44;;;;;;;68.43;40.58;;;;;;;1.47;100.00;103053.19;5030171;28;20091;-67
2022/03/21 03:21:11;;;;;;;75.22;42.47;;;;;;;1.41;100.00;103049.13;5031310;28;20029;-68
2022/03/21 03:23:39;;;;;;;77.68;43.53;;;;;;;1.62;100.00;103050.16;5032067;28;20377;-68
2022/03/21 03:26:04;;;;;;;77.90;41.80;;;;;;;1.48;100.00;103048.94;5029665;28;20090;-67
2022/03/21 03:28:31;;;;;;;74.60;42.47;;;;;;;1.37;100.00;103057.41;5028889;28;20033;-67
2022/03/21 03:30:58;;;;;;;77.15;44.05;;;;;;;1.28;100.00;103055.81;5025927;28;20026;-67
2022/03/21 03:33:24;;;;;;;78.25;42.80;;;;;;;1.29;100.00;103054.13;5028500;28;20026;-66
2022/03/21 03:35:50;;;;;;;78.15;42.45;;;;;;;1.28;100.00;103057.50;5031588;28;20032;-67
2022/03/21 03:38:17;;;;;;;75.90;42.70;;;;;;;1.21;100.00;103053.47;5032028;28;20033;-66
2022/03/21 03:40:45;;;;;;;74.43;43.20;;;;;;;1.22;100.00;103060.47;5031209;28;20026;-66
2022/03/21 03:43:12;;;;;;;81.45;45.75;;;;;;;1.26;100.00;103065.16;5031665;28;20009;-67
2022/03/21 03:45:38;;;;;;;77.72;43.55;;;;;;;1.28;100.00;103068.78;5028632;28;20461;-66
2022/03/21 03:48:04;;;;;;;81.53;47.85;;;;;;;1.29;100.00;103060.25;5032033;28;20036;-66
2022/03/21 03:50:29;;;;;;;76.97;42.95;;;;;;;1.34;100.00;103058.97;5030302;28;20053;-66
2022/03/21 03:52:55;;;;;;;78.25;43.38;;;;;;;1.41;100.00;103059.50;5034243;28;20037;-67
2022/03/21 03:55:20;;;;;;;75.80;42.63;;;;;;;1.47;100.00;103066.16;5034050;28;20029;-67
2022/03/21 03:57:47;;;;;;;83.70;43.28;;;;;;;1.55;100.00;103064.25;5034748;28;20130;-67
2022/03/21 04:00:14;;;;;;;74.80;40.95;;;;;;;1.65;100.00;103064.28;5033043;28;20033;-67
2022/03/21 04:05:24;;;;;;;74.40;43.17;;;;;;;1.82;100.00;103068.38;5035078;28;20032;-67
2022/03/21 04:07:49;;;;;;;70.00;40.35;;;;;;;1.89;100.00;103063.75;5034854;28;20485;-67
2022/03/21 04:10:15;;;;;;;69.45;41.10;;;;;;;1.94;100.00;103065.97;5034081;28;20094;-67
2022/03/21 04:12:42;;;;;;;71.47;40.80;;;;;;;1.97;100.00;103066.22;5035307;28;20064;-67
2022/03/21 04:15:09;;;;;;;67.07;40.28;;;;;;;1.98;100.00;103067.13;5027529;28;20112;-66
2022/03/21 04:17:35;;;;;;;73.18;40.70;;;;;;;1.99;100.00;103072.47;5032842;28;20074;-67
2022/03/21 04:20:02;;;;;;;78.10;41.85;;;;;;;1.95;100.00;103062.56;5034530;28;20111;-67
2022/03/21 04:22:28;;;;;;;70.35;41.55;;;;;;;1.91;100.00;103065.66;5035782;28;20094;-67
2022/03/21 04:24:53;;;;;;;71.95;41.85;;;;;;;1.90;100.00;103074.25;5032598;28;20025;-67
2022/03/21 04:27:18;;;;;;;69.65;41.92;;;;;;;1.89;100.00;103066.34;5033966;28;20163;-67
2022/03/21 04:29:44;;;;;;;71.10;40.17;;;;;;;1.91;100.00;103068.28;5033505;28;20036;-67
2022/03/21 04:32:09;;;;;;;73.90;40.92;;;;;;;1.89;100.00;103067.25;5034230;28;20025;-67
2022/03/21 04:34:34;;;;;;;71.38;39.50;;;;;;;1.88;100.00;103070.59;5033967;28;20026;-67
2022/03/21 04:37:00;;;;;;;69.18;39.65;;;;;;;1.90;100.00;103078.53;5033957;28;20037;-67
2022/03/21 04:39:25;;;;;;;74.93;41.67;;;;;;;1.87;100.00;103075.66;5032467;28;20060;-67
2022/03/21 04:41:51;;;;;;;69.30;40.00;;;;;;;1.84;100.00;103078.91;5032740;28;20215;-69
2022/03/21 04:44:16;;;;;;;73.38;42.22;;;;;;;1.84;100.00;103069.41;5029808;28;20037;-68
2022/03/21 04:46:41;;;;;;;68.20;40.17;;;;;;;1.83;100.00;103077.06;5031074;28;20017;-66
2022/03/21 04:49:06;;;;;;;70.93;41.08;;;;;;;1.81;100.00;103078.63;5033400;28;20080;-66
2022/03/21 04:51:32;;;;;;;69.63;41.13;;;;;;;1.79;100.00;103086.28;5032954;28;20516;-66
2022/03/21 04:53:57;;;;;;;73.32;41.35;;;;;;;1.77;100.00;103086.94;5033838;28;20076;-66
2022/03/21 04:56:22;;;;;;;72.07;42.30;;;;;;;1.75;100.00;103089.41;5033285;28;20496;-67
2022/03/21 04:58:48;;;;;;;73.72;41.25;;;;;;;1.74;100.00;103089.25;5033947;28;20049;-67
2022/03/21 05:01:14;;;;;;;71.93;41.53;;;;;;;1.71;100.00;103086.38;5030986;28;20029;-67
2022/03/21 05:03:39;;;;;;;72.03;42.40;;;;;;;1.68;100.00;103087.94;5030963;28;20057;-67
2022/03/21 05:06:05;;;;;;;74.05;42.33;;;;;;;1.71;100.00;103089.91;5030989;28;20021;-67
2022/03/21 05:08:31;;;;;;;73.68;42.65;;;;;;;1.68;100.00;103087.94;5029436;28;20092;-67
2022/03/21 05:10:56;;;;;;;75.68;42.15;;;;;;;1.66;100.00;103086.88;5034315;28;20473;-67
2022/03/21 05:13:22;;;;;;;72.88;42.63;;;;;;;1.64;100.00;103090.09;5033609;28;20022;-67
2022/03/21 05:15:47;;;;;;;71.57;40.95;;;;;;;1.63;100.00;103080.53;5033410;28;20033;-67
2022/03/21 05:18:12;;;;;;;75.53;40.83;;;;;;;1.61;100.00;103090.72;5033317;28;20397;-68
2022/03/21 05:20:38;;;;;;;73.15;41.45;;;;;;;1.57;100.00;103093.84;5031611;28;20104;-67
2022/03/21 05:31:15;;;;;;;71.40;41.20;;;;;;;1.46;100.00;103102.34;5031183;28;20044;-67
2022/03/21 05:36:26;;;;;;;75.13;43.95;;;;;;;1.41;100.00;103104.53;5033795;28;20524;-67
2022/03/21 05:38:51;;;;;;;71.75;42.17;;;;;;;1.34;100.00;103105.66;5030774;28;20172;-67
2022/03/21 05:41:17;;;;;;;75.90;43.05;;;;;;;1.26;100.00;103104.06;5033440;28;20521;-67
2022/03/21 05:43:42;;;;;;;75.22;43.50;;;;;;;1.20;100.00;103115.56;5031575;28;20458;-67
2022/03/21 05:46:07;;;;;;;79.18;43.85;;;;;;;1.15;100.00;103115.13;5033611;28;20025;-67
2022/03/21 05:51:27;;;;;;;79.93;43.60;;;;;;;1.15;100.00;103125.50;5027689;28;20049;-67
2022/03/21 05:53:54;;;;;;;77.72;42.85;;;;;;;1.13;100.00;103125.34;5031646;28;20040;-67
2022/03/21 05:56:21;;;;;;;77.63;42.13;;;;;;;1.14;100.00;103126.25;5032645;28;20466;-67
2022/03/21 05:58:47;;;;;;;79.78;44.55;;;;;;;1.16;100.00;103125.63;5029945;28;20386;-67
2022/03/21 06:01:14;;;;;;;83.38;45.47;;;;;;;1.16;100.00;103124.72;5030636;28;20029;-66
2022/03/21 06:03:40;;;;;;;73.32;43.70;;;;;;;1.13;100.00;103127.06;5026661;28;20028;-70
2022/03/21 06:06:06;;;;;;;78.05;41.88;;;;;;;1.10;100.00;103127.69;5030293;28;20029;-70
2022/03/21 06:08:31;;;;;;;77.50;43.88;;;;;;;1.10;100.00;103137.13;5034435;28;20067;-70
2022/03/21 06:11:08;;;;;;;84.38;45.80;;;;;;;1.13;100.00;103135.72;5034180;28;20029;-70
2022/03/21 06:13:39;;;;;;;85.50;45.03;;;;;;;1.20;100.00;103136.31;5028482;28;20025;-70
2022/03/21 06:16:06;;;;;;;82.97;43.60;;;;;;;1.26;100.00;103132.59;5023420;28;20155;-70
2022/03/21 06:18:35;;;;;;;77.28;44.00;;;;;;;1.34;100.00;103136.78;5030925;28;20048;-70
2022/03/21 06:21:02;;;;;;;86.60;44.70;;;;;;;1.42;100.00;103133.97;5030380;28;20041;-71
2022/03/21 06:23:28;;;;;;;86.18;45.80;;;;;;;1.47;100.00;103145.69;5028434;28;20350;-70
2022/03/21 06:25:57;;;;;;;74.78;42.13;;;;;;;1.52;100.00;103147.03;5020918;28;20056;-70
2022/03/21 06:28:23;;;;;;;75.45;44.80;;;;;;;1.59;100.00;103149.38;5030083;28;20487;-70
2022/03/21 06:30:51;;;;;;;81.93;43.63;;;;;;;1.63;100.00;103148.91;5029182;28;20113;-68
2022/03/21 06:33:18;;;;;;;79.63;45.28;;;;;;;1.71;100.00;103148.66;5027151;28;20029;-68
2022/03/21 06:35:43;;;;;;;81.10;43.50;;;;;;;1.79;100.00;103156.38;5033972;28;20071;-68
2022/03/21 06:38:10;;;;;;;83.32;44.95;;;;;;;1.87;100.00;103154.44;5027855;28;20112;-68
2022/03/21 06:40:36;;;;;;;77.43;43.85;;;;;;;1.95;100.00;103155.13;5021932;28;20696;-68
2022/03/21 06:43:02;;;;;;;84.10;45.28;;;;;;;2.04;100.00;103160.25;5026875;28;20492;-70
2022/03/21 06:45:28;;;;;;;86.82;45.80;;;;;;;2.10;100.00;103153.88;5024275;28;20037;-70
2022/03/21 06:47:53;;;;;;;77.15;44.45;;;;;;;2.17;100.00;103157.94;5024340;28;20049;-70
2022/03/21 06:50:18;;;;;;;78.13;45.75;;;;;;;2.23;100.00;103162.78;5022830;28;20084;-71
2022/03/21 06:52:45;;;;;;;78.22;44.22;;;;;;;2.31;100.00;103167.88;5028720;28;20073;-70
2022/03/21 06:55:12;;;;;;;75.13;44.70;;;;;;;2.37;100.00;103162.28;5026971;28;20050;-69
2022/03/21 06:57:38;;;;;;;80.03;45.10;;;;;;;2.43;100.00;103164.50;5022884;28;20033;-69
2022/03/21 07:00:05;;;;;;;76.97;45.35;;;;;;;2.46;100.00;103164.81;5023946;28;20035;-69
2022/03/21 07:02:31;;;;;;;78.32;45.50;;;;;;;2.51;100.00;103166.13;5024953;28;20025;-69
2022/03/21 07:04:57;;;;;;;77.90;45.08;;;;;;;2.54;100.00;103166.38;5033354;28;20082;-68
2022/03/21 07:07:23;;;;;;;79.28;45.95;;;;;;;2.60;100.00;103168.59;5031130;28;20110;-68
2022/03/21 07:09:49;;;;;;;80.15;47.28;;;;;;;2.64;100.00;103173.28;5027408;28;20113;-68
2022/03/21 07:12:14;;;;;;;86.75;48.17;;;;;;;2.66;100.00;103182.13;5022320;28;20029;-67
2022/03/21 07:14:39;;;;;;;81.38;47.80;;;;;;;2.72;100.00;103177.44;5029320;28;20021;-68
2022/03/21 07:17:05;;;;;;;79.32;46.78;;;;;;;2.79;100.00;103184.09;5030385;28;20425;-67
2022/03/21 07:19:30;;;;;;;87.30;48.10;;;;;;;2.85;100.00;103184.63;5028981;28;20033;-68
2022/03/21 07:21:56;;;;;;;82.13;46.30;;;;;;;2.92;100.00;103188.66;5028597;28;20068;-69
2022/03/21 07:24:21;;;;;;;77.63;46.38;;;;;;;2.98;100.00;103177.06;5029289;28;20022;-69
2022/03/21 07:26:46;;;;;;;75.93;45.65;;;;;;;3.05;100.00;103181.09;5027529;28;20108;-68
2022/03/21 07:29:12;;;;;;;77.28;45.55;;;;;;;3.11;100.00;103185.94;5027287;28;20094;-68
2022/03/21 07:31:38;;;;;;;79.97;47.65;;;;;;;3.17;100.00;103183.84;5022786;28;20117;-69
2022/03/21 07:34:03;;;;;;;80.60;45.03;;;;;;;3.24;100.00;103188.78;5025448;28;20033;-69
2022/03/21 07:36:29;;;;;;;70.55;46.00;;;;;;;3.31;100.00;103192.81;5024687;28;20032;-68
2022/03/21 07:38:56;;;;;;;85.43;48.33;;;;;;;3.39;100.00;103189.16;5020353;28;20037;-67
2022/03/21 07:41:23;;;;;;;87.57;46.90;;;;;;;3.46;100.00;103186.31;5023933;28;20052;-67
2022/03/21 07:43:49;;;;;;;84.45;46.40;;;;;;;3.54;100.00;103186.91;5020627;28;20486;-67
2022/03/21 07:48:59;;;;;;;80.18;46.42;;;;;;;3.75;100.00;103193.00;5019992;28;20044;-68
2022/03/21 07:51:25;;;;;;;84.22;45.60;;;;;;;3.87;100.00;103193.09;5021365;28;20136;-67
2022/03/21 07:53:50;;;;;;;72.38;43.10;;;;;;;3.98;100.00;103197.47;5023298;28;20034;-69
2022/03/21 07:56:16;;;;;;;75.70;44.85;;;;;;;4.09;100.00;103200.06;5021436;28;20099;-67
2022/03/21 07:58:41;;;;;;;72.93;45.75;;;;;;;4.16;100.00;103202.38;5025313;28;20108;-67
2022/03/21 08:01:07;;;;;;;77.72;46.13;;;;;;;4.27;100.00;103200.63;5031474;28;20026;-68
2022/03/21 08:03:33;;;;;;;73.57;44.22;;;;;;;4.37;100.00;103200.59;5031033;28;20095;-68
2022/03/21 08:05:59;;;;;;;70.53;44.55;;;;;;;4.47;100.00;103204.84;5018594;28;20045;-68
2022/03/21 08:08:25;;;;;;;71.22;44.75;;;;;;;4.59;100.00;103204.91;5031620;28;20025;-69
2022/03/21 08:10:50;;;;;;;76.82;46.40;;;;;;;4.67;99.80;103201.22;5032526;28;20035;-69
2022/03/21 08:13:17;;;;;;;69.07;43.38;;;;;;;4.77;98.95;103200.22;5031864;28;20029;-68
2022/03/21 08:15:44;;;;;;;76.00;45.17;;;;;;;4.81;98.94;103203.19;5028402;28;20474;-69
2022/03/21 08:18:12;;;;;;;74.53;42.55;;;;;;;4.93;99.10;103205.84;5028376;28;20397;-68
2022/03/21 08:20:39;;;;;;;73.03;43.65;;;;;;;5.06;98.77;103205.13;5030770;28;20116;-69
2022/03/21 08:23:11;;;;;;;74.70;42.50;;;;;;;5.18;98.35;103208.66;5031905;28;20021;-69
2022/03/21 08:25:38;;;;;;;67.97;43.47;;;;;;;5.28;97.46;103204.16;5031537;28;20079;-69
2022/03/21 08:28:05;;;;;;;68.20;43.63;;;;;;;5.37;97.23;103212.66;5030627;28;20392;-69
2022/03/21 08:30:33;;;;;;;72.20;44.03;;;;;;;5.43;96.65;103213.13;5027995;28;20040;-68
2022/03/21 08:32:59;;;;;;;68.60;42.38;;;;;;;5.50;96.65;103209.28;5029912;28;20029;-69
2022/03/21 08:35:24;;;;;;;66.10;41.95;;;;;;;5.62;96.98;103205.00;5031153;28;20520;-68
2022/03/21 08:37:50;;;;;;;72.65;42.42;;;;;;;5.76;95.42;103199.88;5027430;28;20029;-66
2022/03/21 08:40:15;;;;;;;67.45;42.22;;;;;;;5.82;95.40;103201.25;5016767;28;20044;-68
2022/03/21 08:42:41;;;;;;;63.67;41.47;;;;;;;5.91;95.09;103208.84;5038431;28;20024;-67
2022/03/21 08:45:07;;;;;;;68.13;40.78;;;;;;;6.05;95.00;103195.13;5034167;28;20432;-67
2022/03/21 08:47:34;;;;;;;68.35;41.35;;;;;;;6.17;94.10;103202.97;5031983;28;20073;-67
2022/03/21 08:49:59;;;;;;;65.57;41.50;;;;;;;6.35;93.82;103212.94;5033769;28;20033;-67
2022/03/21 08:52:25;;;;;;;65.93;40.88;;;;;;;6.48;91.83;103199.91;5034163;28;20029;-67
2022/03/21 08:54:51;;;;;;;63.60;39.50;;;;;;;6.60;91.61;103202.50;5022829;28;20026;-68
2022/03/21 08:57:16;;;;;;;58.47;37.95;;;;;;;6.77;91.34;103197.56;5031951;28;20033;-68
2022/03/21 08:59:41;;;;;;;61.67;40.20;;;;;;;6.87;90.98;103195.69;5034540;28;20017;-67
2022/03/21 09:02:08;;;;;;;63.72;40.25;;;;;;;7.07;90.25;103204.94;5033581;28;20466;-67
2022/03/21 09:04:35;;;;;;;58.78;38.78;;;;;;;7.26;89.72;103201.88;5034519;28;20025;-67
2022/03/21 09:07:01;;;;;;;63.47;39.10;;;;;;;7.49;88.62;103201.59;5034676;28;20474;-68
2022/03/21 09:09:26;;;;;;;67.72;38.28;;;;;;;7.69;87.51;103193.38;5030648;28;20025;-67
2022/03/21 09:11:51;;;;;;;61.47;37.90;;;;;;;7.91;87.16;103195.69;5032460;28;20554;-68
2022/03/21 09:14:17;;;;;;;59.40;36.83;;;;;;;8.16;85.25;103196.38;5034687;28;20036;-68
2022/03/21 09:16:42;;;;;;;62.03;37.38;;;;;;;8.40;83.03;103202.28;5024388;28;20485;-67
2022/03/21 09:19:09;;;;;;;57.78;34.60;;;;;;;8.59;83.81;103194.78;5035130;28;20031;-67
2022/03/21 09:21:35;;;;;;;54.22;33.50;;;;;;;8.85;81.36;103191.97;5033542;28;20025;-67
2022/03/21 09:24:01;;;;;;;53.88;32.47;;;;;;;9.07;78.92;103189.81;5032118;28;20219;-67
2022/03/21 09:26:27;;;;;;;48.00;30.73;;;;;;;9.31;76.48;103183.38;5027878;28;20049;-67
2022/03/21 09:28:59;;;;;;;44.35;29.73;;;;;;;9.54;75.56;103176.84;5034113;28;20429;-68
2022/03/21 09:31:25;;;;;;;42.53;29.65;;;;;;;9.70;73.74;103179.53;5029048;28;20057;-67
2022/03/21 09:33:50;;;;;;;65.03;28.85;;;;;;;9.96;72.66;103188.00;5034380;28;20069;-66
2022/03/21 09:36:16;;;;;;;44.78;27.13;;;;;;;10.22;71.93;103170.16;5034654;28;20026;-67
2022/03/21 09:38:41;;;;;;;38.88;25.30;;;;;;;10.44;70.12;103177.53;5031924;28;20073;-67
2022/03/21 09:41:13;;;;;;;38.85;26.13;;;;;;;10.58;68.52;103173.00;5031320;28;20029;-68
2022/03/21 09:43:39;;;;;;;39.03;26.55;;;;;;;10.86;69.65;103182.41;5029851;28;20083;-68
2022/03/21 09:46:07;;;;;;;38.80;25.33;;;;;;;11.17;64.28;103178.75;5031387;28;20108;-69
2022/03/21 09:48:34;;;;;;;40.92;24.95;;;;;;;11.50;62.79;103170.75;5012942;28;20141;-69
2022/03/21 09:51:04;;;;;;;42.65;24.15;;;;;;;11.77;61.05;103180.03;5028257;28;20068;-70
2022/03/21 09:53:29;;;;;;;39.03;23.27;;;;;;;11.93;58.37;103170.22;5026445;28;20026;-71
2022/03/21 09:55:55;;;;;;;39.88;25.35;;;;;;;12.16;59.46;103167.81;5026880;28;20021;-71
2022/03/21 09:58:21;;;;;;;41.65;25.33;;;;;;;12.46;59.73;103174.50;5026186;28;20112;-71
2022/03/21 10:00:49;;;;;;;36.58;24.23;;;;;;;12.77;57.72;103175.94;5032102;28;20104;-72
2022/03/21 10:03:15;;;;;;;38.80;25.92;;;;;;;12.95;57.06;103167.00;5026254;28;20438;-72
2022/03/21 10:05:43;;;;;;;36.55;24.35;;;;;;;13.15;58.58;103171.44;5027418;28;20034;-70
2022/03/21 10:08:23;;;;;;;31.85;22.23;;;;;;;13.22;55.26;103166.41;5027631;28;20040;-70
2022/03/21 10:10:54;;;;;;;36.80;23.10;;;;;;;13.45;56.97;103160.38;5021445;28;20049;-70
2022/03/21 10:13:21;;;;;;;38.15;22.85;;;;;;;13.67;55.97;103169.22;5024775;28;20037;-72
2022/03/21 10:15:48;;;;;;;36.05;23.67;;;;;;;13.78;53.27;103162.63;5027614;28;20392;-72
2022/03/21 10:18:13;;;;;;;37.72;23.00;;;;;;;13.96;50.34;103158.94;5026289;28;20033;-72
2022/03/21 10:20:40;;;;;;;34.92;21.13;;;;;;;13.97;49.88;103150.13;5032306;28;20087;-72
2022/03/21 10:23:23;;;;;;;37.88;22.85;;;;;;;14.02;48.24;103150.31;5032786;28;20028;-70
2022/03/21 10:25:49;;;;;;;34.70;22.57;;;;;;;14.13;47.79;103148.97;5032148;28;20033;-70
2022/03/21 10:28:36;;;;;;;31.42;21.17;;;;;;;14.36;48.20;103147.22;5026939;28;20423;-70
2022/03/21 10:31:03;;;;;;;32.42;19.40;;;;;;;14.50;43.75;103146.00;5029122;28;20032;-70
2022/03/21 10:33:28;;;;;;;32.95;19.88;;;;;;;14.57;42.73;103146.22;5031608;28;20543;-70
2022/03/21 10:35:54;;;;;;;30.67;20.75;;;;;;;14.66;43.44;103149.25;5033587;28;20037;-71
2022/03/21 10:38:34;;;;;;;29.83;19.98;;;;;;;14.89;43.91;103154.47;5031286;28;20032;-70
2022/03/21 10:41:09;;;;;;;27.20;18.80;;;;;;;14.87;41.52;103143.81;5031402;28;20533;-70
2022/03/21 10:43:35;;;;;;;24.02;16.70;;;;;;;14.91;40.55;103143.09;5031841;28;20040;-70
2022/03/21 10:46:02;;;;;;;24.35;16.83;;;;;;;15.04;38.98;103133.81;5032993;28;20120;-71
2022/03/21 10:48:29;;;;;;;27.55;16.95;;;;;;;15.27;38.72;103136.34;5014350;28;20040;-72
2022/03/21 10:50:56;;;;;;;24.42;17.08;;;;;;;15.65;40.92;103134.06;5030070;28;20044;-71
2022/03/21 10:53:25;;;;;;;95.65;19.10;;;;;;;16.04;37.20;103130.91;5029268;28;20040;-80
2022/03/21 10:55:53;;;;;;;22.52;14.93;;;;;;;16.19;36.96;103122.50;5032851;28;20448;-70
2022/03/21 10:58:34;;;;;;;21.15;14.73;;;;;;;16.66;35.84;103114.09;5031153;28;20068;-70
2022/03/21 11:01:27;;;;;;;17.95;10.82;;;;;;;16.99;31.02;103108.81;5032745;28;20054;-71
2022/03/21 11:04:00;;;;;;;17.27;13.68;;;;;;;16.85;32.64;103105.75;5032478;28;20021;-71
2022/03/21 11:06:29;;;;;;;16.60;12.25;;;;;;;17.20;33.03;103107.59;5026137;28;20114;-71
2022/03/21 11:08:55;;;;;;;19.10;13.32;;;;;;;17.35;30.99;103101.75;5031419;28;20033;-70
2022/03/21 11:11:21;;;;;;;20.13;12.75;;;;;;;17.55;30.62;103104.88;5029373;28;20072;-71
2022/03/21 11:13:47;;;;;;;17.23;12.35;;;;;;;17.69;27.99;103097.22;5029421;28;20025;-70
2022/03/21 11:16:17;;;;;;;16.20;11.95;;;;;;;17.77;29.92;103095.66;5031472;28;20061;-70
2022/03/21 11:18:45;;;;;;;18.33;12.45;;;;;;;17.75;28.87;103094.69;5029193;28;20063;-71
2022/03/21 11:21:11;;;;;;;20.80;13.27;;;;;;;17.79;29.40;103093.91;5032427;28;20038;-71
2022/03/21 11:23:37;;;;;;;22.65;13.25;;;;;;;17.75;30.17;103092.03;5032738;28;20022;-71
2022/03/21 11:26:16;;;;;;;18.30;13.38;;;;;;;17.55;29.70;103090.69;5032332;28;20036;-71
2022/03/21 11:29:10;;;;;;;21.25;12.95;;;;;;;17.57;30.94;103094.28;5032376;28;20060;-72